Time;durP1;ratioP1;P1;durP2;ratioP2;P2;SDS_P1;SDS_P2;PMS_P1;PMS_P2;Temp;Humidity;BMP_temperature;BMP_pressure;BME280_temperature;BME280_humidity;BME280_pressure;Samples;Min_cycle;Max_cycle;Signal;HPM_P1;HPM_P2
2021/10/30 00:01:31;;;;;;;48.33;23.93;;;;;;;;;;4431607;32;20264;-54
2021/10/30 00:03:56;;;;;;;59.37;27.07;;;;;;;;;;4432851;32;20266;-54
2021/10/30 00:06:22;;;;;;;88.37;38.70;;;;;;;;;;4432558;32;20649;-54
2021/10/30 00:08:47;;;;;;;92.23;38.23;;;;;;;;;;4431363;32;20385;-54
2021/10/30 00:11:13;;;;;;;71.47;33.33;;;;;;;;;;4430985;32;20305;-55
2021/10/30 00:13:38;;;;;;;70.50;31.00;;;;;;;;;;4430886;32;20419;-56
2021/10/30 00:16:04;;;;;;;65.03;29.90;;;;;;;;;;4432530;32;20586;-54
2021/10/30 00:18:30;;;;;;;59.53;29.30;;;;;;;;;;4432602;32;20680;-54
2021/10/30 00:20:57;;;;;;;64.87;30.57;;;;;;;;;;4431950;32;20329;-54
2021/10/30 00:23:23;;;;;;;55.00;29.80;;;;;;;;;;4431966;32;20202;-55
2021/10/30 00:25:48;;;;;;;60.13;30.77;;;;;;;;;;4432526;32;20335;-54
2021/10/30 00:28:14;;;;;;;63.93;29.47;;;;;;;;;;4432045;32;20358;-56
2021/10/30 00:30:39;;;;;;;66.17;31.37;;;;;;;;;;4432498;32;20371;-54
2021/10/30 00:33:05;;;;;;;54.83;30.40;;;;;;;;;;4432128;32;20356;-53
2021/10/30 00:35:30;;;;;;;60.80;31.73;;;;;;;;;;4432322;32;20283;-54
2021/10/30 00:37:56;;;;;;;62.37;30.53;;;;;;;;;;4431851;32;20596;-54
2021/10/30 00:40:21;;;;;;;68.03;32.10;;;;;;;;;;4432091;32;20371;-54
2021/10/30 00:42:47;;;;;;;71.90;36.17;;;;;;;;;;4432381;32;20267;-54
2021/10/30 00:45:12;;;;;;;66.37;34.50;;;;;;;;;;4431970;32;20279;-53
2021/10/30 00:47:38;;;;;;;83.43;35.80;;;;;;;;;;4432314;32;20258;-54
2021/10/30 00:50:05;;;;;;;68.30;33.63;;;;;;;;;;4432392;32;20283;-54
2021/10/30 00:52:31;;;;;;;64.67;35.30;;;;;;;;;;4432176;32;20261;-55
2021/10/30 00:55:00;;;;;;;71.80;34.03;;;;;;;;;;4433247;32;20205;-54
2021/10/30 00:57:26;;;;;;;72.77;32.63;;;;;;;;;;4434604;32;20260;-54
2021/10/30 00:59:53;;;;;;;62.67;32.57;;;;;;;;;;4435032;32;20204;-54
2021/10/30 01:02:19;;;;;;;55.93;31.13;;;;;;;;;;4427294;32;20404;-55
2021/10/30 01:04:45;;;;;;;60.03;32.33;;;;;;;;;;4433683;32;20358;-54
2021/10/30 01:07:11;;;;;;;71.93;31.10;;;;;;;;;;4434789;32;20287;-54
2021/10/30 01:09:37;;;;;;;62.27;30.97;;;;;;;;;;4434729;32;20412;-55
2021/10/30 01:12:02;;;;;;;65.40;29.67;;;;;;;;;;4434590;32;20220;-55
2021/10/30 01:14:29;;;;;;;57.80;28.47;;;;;;;;;;4434792;32;20279;-55
2021/10/30 01:17:03;;;;;;;58.83;28.17;;;;;;;;;;4428649;32;20214;-55
2021/10/30 01:19:30;;;;;;;57.47;29.23;;;;;;;;;;4417891;32;20243;-54
2021/10/30 01:21:56;;;;;;;62.03;31.17;;;;;;;;;;4418994;32;20282;-54
2021/10/30 01:24:21;;;;;;;124.90;51.30;;;;;;;;;;4419151;32;20280;-55
2021/10/30 01:26:47;;;;;;;73.33;37.13;;;;;;;;;;4419139;32;20586;-54
2021/10/30 01:29:13;;;;;;;72.93;35.50;;;;;;;;;;4419184;32;20289;-54
2021/10/30 01:31:38;;;;;;;79.97;36.87;;;;;;;;;;4418898;32;20217;-54
2021/10/30 01:34:05;;;;;;;69.30;34.80;;;;;;;;;;4419232;32;20276;-54
2021/10/30 01:36:33;;;;;;;74.10;36.77;;;;;;;;;;4418714;32;20287;-54
2021/10/30 01:38:59;;;;;;;75.47;35.03;;;;;;;;;;4434020;32;20205;-55
2021/10/30 01:41:25;;;;;;;69.50;30.77;;;;;;;;;;4434159;32;20236;-54
2021/10/30 01:43:52;;;;;;;63.63;29.57;;;;;;;;;;4434313;32;20566;-55
2021/10/30 01:46:19;;;;;;;55.77;23.77;;;;;;;;;;4434317;32;20253;-54
2021/10/30 01:48:45;;;;;;;54.03;24.80;;;;;;;;;;4434809;32;20260;-54
2021/10/30 01:51:11;;;;;;;49.07;23.50;;;;;;;;;;4433836;32;20240;-53
2021/10/30 01:53:36;;;;;;;42.13;20.87;;;;;;;;;;4434383;32;20324;-54
2021/10/30 01:56:03;;;;;;;51.90;31.40;;;;;;;;;;4433867;32;20381;-53
2021/10/30 01:58:28;;;;;;;41.30;21.70;;;;;;;;;;4433718;32;20323;-53
2021/10/30 02:00:56;;;;;;;37.97;18.93;;;;;;;;;;4427662;32;20767;-55
2021/10/30 02:03:23;;;;;;;28.17;15.87;;;;;;;;;;4433322;32;20701;-54
2021/10/30 02:05:50;;;;;;;37.27;16.83;;;;;;;;;;4433188;32;20201;-53
2021/10/30 02:08:15;;;;;;;26.53;15.53;;;;;;;;;;4432479;32;20289;-53
2021/10/30 02:10:41;;;;;;;37.70;18.90;;;;;;;;;;4433977;32;20319;-54
2021/10/30 02:13:07;;;;;;;34.03;18.30;;;;;;;;;;4433605;32;20221;-54
2021/10/30 02:15:32;;;;;;;36.60;17.00;;;;;;;;;;4433490;32;21075;-54
2021/10/30 02:17:58;;;;;;;33.00;16.90;;;;;;;;;;4434147;32;20225;-54
2021/10/30 02:20:23;;;;;;;33.67;18.23;;;;;;;;;;4434011;32;20272;-54
2021/10/30 02:22:52;;;;;;;32.33;17.77;;;;;;;;;;4433746;32;20236;-53
2021/10/30 02:25:18;;;;;;;42.27;20.37;;;;;;;;;;4433636;32;20853;-54
2021/10/30 02:27:43;;;;;;;43.90;21.23;;;;;;;;;;4433605;32;20264;-53
2021/10/30 02:30:09;;;;;;;40.70;21.57;;;;;;;;;;4433672;32;20396;-53
2021/10/30 02:32:35;;;;;;;42.13;20.60;;;;;;;;;;4433442;32;20224;-54
2021/10/30 02:35:00;;;;;;;47.80;23.30;;;;;;;;;;4433264;32;20338;-54
2021/10/30 02:37:26;;;;;;;72.27;31.30;;;;;;;;;;4433300;32;20296;-53
2021/10/30 02:39:51;;;;;;;103.10;41.93;;;;;;;;;;4433450;32;20396;-53
2021/10/30 02:42:17;;;;;;;93.60;45.07;;;;;;;;;;4433075;32;20252;-54
2021/10/30 02:44:42;;;;;;;121.60;55.37;;;;;;;;;;4433394;32;20316;-53
2021/10/30 02:47:08;;;;;;;97.20;52.13;;;;;;;;;;4432899;32;20386;-52
2021/10/30 02:49:33;;;;;;;105.30;52.80;;;;;;;;;;4433255;32;20717;-54
2021/10/30 02:51:59;;;;;;;106.83;53.07;;;;;;;;;;4433110;32;20282;-54
2021/10/30 02:54:25;;;;;;;79.63;43.00;;;;;;;;;;4431773;32;20358;-54
2021/10/30 02:56:50;;;;;;;53.37;30.70;;;;;;;;;;4432920;32;20277;-53
2021/10/30 02:59:16;;;;;;;58.50;32.10;;;;;;;;;;4433196;32;20299;-53
2021/10/30 03:01:41;;;;;;;53.10;27.47;;;;;;;;;;4425933;32;20244;-53
2021/10/30 03:04:07;;;;;;;64.90;33.97;;;;;;;;;;4433038;32;20259;-53
2021/10/30 03:06:32;;;;;;;59.93;32.13;;;;;;;;;;4432913;32;20312;-54
2021/10/30 03:08:59;;;;;;;68.37;33.07;;;;;;;;;;4433016;32;20704;-54
2021/10/30 03:11:25;;;;;;;52.87;28.27;;;;;;;;;;4432678;32;20742;-55
2021/10/30 03:13:50;;;;;;;53.97;30.60;;;;;;;;;;4433050;32;20283;-55
2021/10/30 03:16:16;;;;;;;49.37;30.23;;;;;;;;;;4432473;32;20217;-54
2021/10/30 03:18:43;;;;;;;59.77;31.30;;;;;;;;;;4431631;32;20288;-54
2021/10/30 03:21:09;;;;;;;49.43;29.37;;;;;;;;;;4432653;32;20667;-54
2021/10/30 03:23:34;;;;;;;73.67;32.30;;;;;;;;;;4433164;32;20333;-54
2021/10/30 03:26:00;;;;;;;66.10;31.30;;;;;;;;;;4432690;32;20295;-54
2021/10/30 03:28:26;;;;;;;65.83;30.90;;;;;;;;;;4432630;32;20356;-54
2021/10/30 03:30:51;;;;;;;67.50;28.93;;;;;;;;;;4432706;32;20299;-54
2021/10/30 03:33:17;;;;;;;54.23;28.83;;;;;;;;;;4431279;32;20729;-54
2021/10/30 03:35:42;;;;;;;61.73;28.33;;;;;;;;;;4432586;32;20718;-55
2021/10/30 03:38:08;;;;;;;56.50;26.00;;;;;;;;;;4432725;32;20538;-54
2021/10/30 03:40:33;;;;;;;58.57;28.70;;;;;;;;;;4432619;32;20272;-54
2021/10/30 03:42:58;;;;;;;49.30;26.50;;;;;;;;;;4432358;32;20216;-53
2021/10/30 03:45:25;;;;;;;53.17;25.23;;;;;;;;;;4432837;32;20281;-54
2021/10/30 03:47:50;;;;;;;51.33;26.97;;;;;;;;;;4432669;32;20259;-54
2021/10/30 03:50:16;;;;;;;54.47;27.90;;;;;;;;;;4432947;32;20287;-53
2021/10/30 03:52:42;;;;;;;56.63;32.93;;;;;;;;;;4432690;32;20304;-54
2021/10/30 03:55:08;;;;;;;59.13;28.53;;;;;;;;;;4432889;32;20284;-53
2021/10/30 03:57:34;;;;;;;63.87;30.70;;;;;;;;;;4432387;32;20421;-53
2021/10/30 03:59:59;;;;;;;54.13;28.77;;;;;;;;;;4432014;32;20271;-55
2021/10/30 04:02:25;;;;;;;57.90;28.37;;;;;;;;;;4425892;32;20233;-54
2021/10/30 04:04:51;;;;;;;53.60;25.67;;;;;;;;;;4432571;32;20295;-55
2021/10/30 04:07:17;;;;;;;40.97;24.20;;;;;;;;;;4432105;32;20593;-54
2021/10/30 04:09:44;;;;;;;47.20;22.97;;;;;;;;;;4432847;32;20272;-55
2021/10/30 04:12:10;;;;;;;52.23;24.77;;;;;;;;;;4432606;32;20566;-53
2021/10/30 04:14:36;;;;;;;57.63;29.53;;;;;;;;;;4432716;32;20806;-54
2021/10/30 04:17:02;;;;;;;47.23;26.93;;;;;;;;;;4432011;32;20249;-54
2021/10/30 04:19:27;;;;;;;64.87;32.77;;;;;;;;;;4432291;32;20659;-55
2021/10/30 04:21:53;;;;;;;61.10;34.83;;;;;;;;;;4432316;32;20281;-52
2021/10/30 04:24:18;;;;;;;63.10;30.73;;;;;;;;;;4432528;32;20748;-54
2021/10/30 04:26:44;;;;;;;52.47;27.13;;;;;;;;;;4432291;32;20312;-55
2021/10/30 04:29:09;;;;;;;58.67;31.33;;;;;;;;;;4433101;32;20298;-54
2021/10/30 04:31:35;;;;;;;61.53;30.43;;;;;;;;;;4435585;32;20308;-53
2021/10/30 04:34:03;;;;;;;63.97;35.83;;;;;;;;;;4435414;32;20276;-54
2021/10/30 04:36:31;;;;;;;64.90;34.47;;;;;;;;;;4435003;32;20274;-54
2021/10/30 04:38:57;;;;;;;61.20;31.17;;;;;;;;;;4435123;32;20208;-53
2021/10/30 04:41:23;;;;;;;60.00;30.43;;;;;;;;;;4434964;32;20252;-55
2021/10/30 04:43:49;;;;;;;61.23;30.40;;;;;;;;;;4435691;32;20352;-55
2021/10/30 04:46:17;;;;;;;59.37;32.50;;;;;;;;;;4434952;32;20244;-54
2021/10/30 04:48:43;;;;;;;56.70;30.30;;;;;;;;;;4435424;32;20255;-54
2021/10/30 04:51:09;;;;;;;64.33;31.03;;;;;;;;;;4434919;32;20224;-54
2021/10/30 04:53:37;;;;;;;70.00;33.67;;;;;;;;;;4435162;32;20350;-57
2021/10/30 04:56:03;;;;;;;70.60;35.67;;;;;;;;;;4434904;32;20244;-55
2021/10/30 04:58:29;;;;;;;57.97;33.33;;;;;;;;;;4434922;32;20354;-54
2021/10/30 05:00:55;;;;;;;69.30;31.67;;;;;;;;;;4428273;32;20290;-54
2021/10/30 05:03:21;;;;;;;57.20;30.30;;;;;;;;;;4434065;32;20343;-54
2021/10/30 05:05:47;;;;;;;60.93;30.57;;;;;;;;;;4433732;32;20236;-54
2021/10/30 05:08:12;;;;;;;68.57;35.27;;;;;;;;;;4434904;32;20313;-55
2021/10/30 05:10:38;;;;;;;68.23;40.10;;;;;;;;;;4434755;32;20280;-55
2021/10/30 05:13:03;;;;;;;87.23;44.37;;;;;;;;;;4433386;32;20324;-54
2021/10/30 05:15:29;;;;;;;86.57;43.60;;;;;;;;;;4433732;32;20649;-53
2021/10/30 05:17:54;;;;;;;85.73;42.40;;;;;;;;;;4434155;32;20755;-55
2021/10/30 05:20:21;;;;;;;95.53;43.30;;;;;;;;;;4433065;32;20333;-54
2021/10/30 05:22:46;;;;;;;82.63;42.80;;;;;;;;;;4433282;32;20320;-54
2021/10/30 05:25:11;;;;;;;80.37;42.33;;;;;;;;;;4434602;32;20299;-54
2021/10/30 05:27:37;;;;;;;81.27;42.17;;;;;;;;;;4434390;32;20692;-54
2021/10/30 05:30:03;;;;;;;80.50;43.27;;;;;;;;;;4433666;32;20302;-55
2021/10/30 05:32:28;;;;;;;86.43;45.70;;;;;;;;;;4432688;32;20255;-54
2021/10/30 05:34:54;;;;;;;89.43;45.13;;;;;;;;;;4432221;32;20344;-54
2021/10/30 05:37:19;;;;;;;76.40;40.73;;;;;;;;;;4432491;32;20689;-54
2021/10/30 05:39:45;;;;;;;84.77;46.23;;;;;;;;;;4432543;32;20276;-54
2021/10/30 05:42:11;;;;;;;91.30;48.57;;;;;;;;;;4430372;32;20312;-54
2021/10/30 05:44:38;;;;;;;106.17;51.17;;;;;;;;;;4434457;32;20233;-53
2021/10/30 05:47:07;;;;;;;99.17;53.13;;;;;;;;;;4433670;32;20255;-53
2021/10/30 05:49:34;;;;;;;104.97;53.37;;;;;;;;;;4433627;32;20248;-54
2021/10/30 05:51:59;;;;;;;112.37;55.47;;;;;;;;;;4434109;32;20299;-54
2021/10/30 05:54:25;;;;;;;100.43;50.37;;;;;;;;;;4434069;32;20700;-54
2021/10/30 05:56:51;;;;;;;118.77;62.10;;;;;;;;;;4434068;32;20264;-54
2021/10/30 05:59:17;;;;;;;123.53;63.57;;;;;;;;;;4434047;32;20288;-55
2021/10/30 06:01:42;;;;;;;125.50;61.40;;;;;;;;;;4432460;32;20696;-54
2021/10/30 06:04:08;;;;;;;111.60;62.67;;;;;;;;;;4434550;32;20614;-54
2021/10/30 06:06:33;;;;;;;118.97;60.70;;;;;;;;;;4433796;32;20236;-53
2021/10/30 06:08:59;;;;;;;117.97;64.03;;;;;;;;;;4433438;32;20227;-53
2021/10/30 06:11:24;;;;;;;109.27;64.30;;;;;;;;;;4434112;32;20312;-54
2021/10/30 06:13:50;;;;;;;111.67;64.30;;;;;;;;;;4434192;32;20814;-54
2021/10/30 06:16:15;;;;;;;118.10;62.13;;;;;;;;;;4433815;32;20663;-54
2021/10/30 06:18:42;;;;;;;113.03;65.27;;;;;;;;;;4433856;32;20354;-57
2021/10/30 06:21:07;;;;;;;112.20;62.33;;;;;;;;;;4433531;32;20227;-54
2021/10/30 06:23:32;;;;;;;95.83;53.53;;;;;;;;;;4433611;32;20342;-54
2021/10/30 06:25:58;;;;;;;103.93;57.27;;;;;;;;;;4432750;32;20283;-54
2021/10/30 06:28:23;;;;;;;94.03;52.27;;;;;;;;;;4433601;32;20295;-54
2021/10/30 06:30:49;;;;;;;86.90;46.17;;;;;;;;;;4433722;32;20332;-54
2021/10/30 06:33:14;;;;;;;69.40;42.33;;;;;;;;;;4433174;32;20432;-56
2021/10/30 06:35:40;;;;;;;89.37;43.70;;;;;;;;;;4433409;32;20657;-54
2021/10/30 06:38:05;;;;;;;72.50;41.20;;;;;;;;;;4433603;32;20383;-54
2021/10/30 06:40:31;;;;;;;81.37;46.80;;;;;;;;;;4433779;32;20375;-54
2021/10/30 06:42:56;;;;;;;78.57;44.33;;;;;;;;;;4432529;32;20302;-54
2021/10/30 06:45:22;;;;;;;75.03;40.47;;;;;;;;;;4433303;32;20283;-56
2021/10/30 06:47:48;;;;;;;71.67;39.30;;;;;;;;;;4433125;32;20272;-54
2021/10/30 06:50:20;;;;;;;64.73;35.20;;;;;;;;;;4431650;32;20409;-54
2021/10/30 06:52:51;;;;;;;71.53;37.50;;;;;;;;;;4432887;32;20232;-54
2021/10/30 06:55:17;;;;;;;79.13;40.03;;;;;;;;;;4432803;32;20292;-54
2021/10/30 06:57:43;;;;;;;79.07;42.07;;;;;;;;;;4433185;32;20239;-53
2021/10/30 07:00:10;;;;;;;70.30;42.87;;;;;;;;;;4431518;32;20264;-55
2021/10/30 07:02:36;;;;;;;80.03;39.30;;;;;;;;;;4427428;32;20384;-54
2021/10/30 07:05:02;;;;;;;66.07;36.80;;;;;;;;;;4433281;32;20214;-53
2021/10/30 07:07:27;;;;;;;72.73;39.43;;;;;;;;;;4433010;32;20245;-53
2021/10/30 07:09:59;;;;;;;81.20;41.40;;;;;;;;;;4433117;32;20722;-54
2021/10/30 07:12:32;;;;;;;82.97;43.23;;;;;;;;;;4432804;32;20246;-54
2021/10/30 07:14:57;;;;;;;65.50;39.80;;;;;;;;;;4425648;32;20237;-54
2021/10/30 07:17:24;;;;;;;67.00;38.23;;;;;;;;;;4427045;32;20239;-54
2021/10/30 07:19:50;;;;;;;57.67;32.70;;;;;;;;;;4429825;32;20740;-54
2021/10/30 07:22:16;;;;;;;60.47;31.90;;;;;;;;;;4432861;32;20251;-55
2021/10/30 07:24:43;;;;;;;60.87;32.30;;;;;;;;;;4432344;32;20275;-56
2021/10/30 07:27:08;;;;;;;58.93;30.43;;;;;;;;;;4432645;32;20547;-53
2021/10/30 07:29:34;;;;;;;60.90;32.20;;;;;;;;;;4431246;32;20338;-56
2021/10/30 07:31:59;;;;;;;39.10;23.23;;;;;;;;;;4432259;32;20240;-56
2021/10/30 07:34:26;;;;;;;51.60;33.23;;;;;;;;;;4432215;32;20383;-53
2021/10/30 07:36:51;;;;;;;50.60;30.67;;;;;;;;;;4431356;32;20225;-54
2021/10/30 07:39:17;;;;;;;61.63;29.27;;;;;;;;;;4418314;32;20319;-55
2021/10/30 07:41:43;;;;;;;43.27;26.30;;;;;;;;;;4432600;32;20263;-55
2021/10/30 07:44:10;;;;;;;42.63;27.20;;;;;;;;;;4432636;32;20328;-55
2021/10/30 07:46:36;;;;;;;51.30;26.60;;;;;;;;;;4431224;32;20259;-55
2021/10/30 07:49:02;;;;;;;48.80;27.07;;;;;;;;;;4432132;32;20367;-54
2021/10/30 07:51:27;;;;;;;44.33;25.83;;;;;;;;;;4431484;32;20229;-54
2021/10/30 07:53:53;;;;;;;49.03;25.37;;;;;;;;;;4430701;32;20582;-56
2021/10/30 07:56:19;;;;;;;43.00;25.27;;;;;;;;;;4431993;32;20757;-54
2021/10/30 07:58:45;;;;;;;56.07;28.57;;;;;;;;;;4432222;32;20780;-54
2021/10/30 08:01:10;;;;;;;51.27;30.07;;;;;;;;;;4430987;32;20368;-55
2021/10/30 08:03:36;;;;;;;50.70;27.33;;;;;;;;;;4431498;32;20308;-54
2021/10/30 08:06:01;;;;;;;49.77;27.40;;;;;;;;;;4434793;32;20335;-55
2021/10/30 08:08:27;;;;;;;39.03;24.53;;;;;;;;;;4435649;32;20291;-55
2021/10/30 08:10:53;;;;;;;44.37;25.20;;;;;;;;;;4435562;32;20675;-53
2021/10/30 08:13:18;;;;;;;45.70;25.33;;;;;;;;;;4434989;32;20374;-55
2021/10/30 08:15:44;;;;;;;43.40;24.43;;;;;;;;;;4434458;32;20284;-54
2021/10/30 08:18:09;;;;;;;34.00;22.10;;;;;;;;;;4435257;32;20244;-53
2021/10/30 08:20:35;;;;;;;32.50;21.10;;;;;;;;;;4435668;32;20280;-55
2021/10/30 08:23:00;;;;;;;39.73;23.37;;;;;;;;;;4435291;32;20252;-55
2021/10/30 08:25:27;;;;;;;37.33;21.93;;;;;;;;;;4444974;32;20320;-54
2021/10/30 08:27:54;;;;;;;52.90;24.07;;;;;;;;;;4449097;32;20395;-54
2021/10/30 08:30:19;;;;;;;39.33;21.27;;;;;;;;;;4448582;32;20676;-54
2021/10/30 08:32:45;;;;;;;44.30;22.30;;;;;;;;;;4447400;32;20264;-54
2021/10/30 08:35:11;;;;;;;36.63;21.87;;;;;;;;;;4448885;32;20295;-55
2021/10/30 08:37:38;;;;;;;30.87;21.00;;;;;;;;;;4448604;32;20774;-55
2021/10/30 08:40:07;;;;;;;35.37;19.80;;;;;;;;;;4450547;32;20276;-55
2021/10/30 08:42:33;;;;;;;38.20;20.33;;;;;;;;;;4450737;32;20335;-57
2021/10/30 08:44:59;;;;;;;30.50;19.07;;;;;;;;;;4450584;32;20628;-54
2021/10/30 08:47:25;;;;;;;34.33;20.20;;;;;;;;;;4450492;32;20221;-54
2021/10/30 08:49:54;;;;;;;32.80;18.30;;;;;;;;;;4450607;32;20267;-55
2021/10/30 08:52:20;;;;;;;36.70;18.50;;;;;;;;;;4450166;32;20231;-53
2021/10/30 08:54:45;;;;;;;36.43;22.00;;;;;;;;;;4448845;32;20670;-56
2021/10/30 08:57:11;;;;;;;26.40;18.30;;;;;;;;;;4432826;32;20348;-54
2021/10/30 08:59:41;;;;;;;24.67;17.10;;;;;;;;;;4419800;32;20284;-54
2021/10/30 09:02:14;;;;;;;37.67;21.53;;;;;;;;;;4419598;32;20228;-54
2021/10/30 09:04:40;;;;;;;29.67;19.50;;;;;;;;;;4420011;32;20586;-54
2021/10/30 09:07:08;;;;;;;27.87;17.63;;;;;;;;;;4419386;32;20209;-54
2021/10/30 09:09:36;;;;;;;38.27;18.43;;;;;;;;;;4419143;32;20198;-55
2021/10/30 09:12:03;;;;;;;29.63;20.93;;;;;;;;;;4419204;32;20277;-55
2021/10/30 09:14:42;;;;;;;26.90;17.67;;;;;;;;;;4418876;32;20217;-55
2021/10/30 09:17:18;;;;;;;24.37;16.43;;;;;;;;;;4433565;32;20263;-55
2021/10/30 09:19:55;;;;;;;23.13;14.57;;;;;;;;;;4434391;32;20510;-54
2021/10/30 09:22:23;;;;;;;25.07;15.03;;;;;;;;;;4418866;32;20383;-55
2021/10/30 09:25:01;;;;;;;22.77;15.00;;;;;;;;;;4429461;32;20205;-55
2021/10/30 09:27:49;;;;;;;24.53;15.63;;;;;;;;;;4433110;32;20327;-54
2021/10/30 09:30:32;;;;;;;30.17;15.63;;;;;;;;;;4434413;32;20225;-54
2021/10/30 09:33:05;;;;;;;22.17;14.77;;;;;;;;;;4434642;32;20274;-55
2021/10/30 09:35:32;;;;;;;23.80;14.27;;;;;;;;;;4434754;32;20197;-53
2021/10/30 09:37:58;;;;;;;22.37;13.60;;;;;;;;;;4434734;32;20312;-55
2021/10/30 09:40:30;;;;;;;16.50;11.57;;;;;;;;;;4434723;32;20808;-55
2021/10/30 09:43:15;;;;;;;19.33;11.07;;;;;;;;;;4433411;32;20288;-54
2021/10/30 09:45:52;;;;;;;24.33;13.50;;;;;;;;;;4434461;32;20789;-54
2021/10/30 09:48:23;;;;;;;22.77;11.63;;;;;;;;;;4434453;32;20255;-54
2021/10/30 09:50:58;;;;;;;16.13;11.93;;;;;;;;;;4434516;32;20252;-55
2021/10/30 09:53:31;;;;;;;14.70;11.20;;;;;;;;;;4434524;32;20692;-54
2021/10/30 09:56:00;;;;;;;20.67;12.93;;;;;;;;;;4429049;32;20723;-54
2021/10/30 09:58:28;;;;;;;20.60;12.43;;;;;;;;;;4434111;32;20205;-54
2021/10/30 10:00:56;;;;;;;19.00;11.97;;;;;;;;;;4432891;32;20233;-54
2021/10/30 10:03:25;;;;;;;14.13;10.70;;;;;;;;;;4434503;32;20700;-54
2021/10/30 10:05:51;;;;;;;12.97;9.97;;;;;;;;;;4434349;32;20200;-55
2021/10/30 10:08:18;;;;;;;16.17;11.10;;;;;;;;;;4433907;32;20334;-54
2021/10/30 10:10:44;;;;;;;15.10;10.33;;;;;;;;;;4434422;32;20228;-55
2021/10/30 10:13:10;;;;;;;21.97;12.87;;;;;;;;;;4434163;32;20257;-54
2021/10/30 10:15:40;;;;;;;23.17;14.13;;;;;;;;;;4434084;32;20311;-54
2021/10/30 10:18:06;;;;;;;8.33;5.83;;;;;;;;;;4433605;32;20229;-54
2021/10/30 10:20:32;;;;;;;11.20;6.33;;;;;;;;;;4432378;32;20236;-56
2021/10/30 10:22:59;;;;;;;20.77;10.93;;;;;;;;;;4433299;32;20241;-55
2021/10/30 10:25:33;;;;;;;13.57;9.43;;;;;;;;;;4433532;32;20287;-55
2021/10/30 10:28:24;;;;;;;17.50;10.03;;;;;;;;;;4433531;32;20330;-56
2021/10/30 10:30:54;;;;;;;12.90;9.23;;;;;;;;;;4433576;32;20778;-55
2021/10/30 10:33:20;;;;;;;18.37;7.93;;;;;;;;;;4433533;32;20255;-55
2021/10/30 10:36:13;;;;;;;10.63;8.83;;;;;;;;;;4433160;32;20292;-55
2021/10/30 10:38:57;;;;;;;10.03;8.47;;;;;;;;;;4432171;32;21004;-54
2021/10/30 10:41:44;;;;;;;21.50;10.50;;;;;;;;;;4434001;32;20228;-54
2021/10/30 10:44:12;;;;;;;16.27;9.90;;;;;;;;;;4433785;32;20656;-54
2021/10/30 10:46:48;;;;;;;14.83;10.40;;;;;;;;;;4433707;32;20256;-54
2021/10/30 10:49:32;;;;;;;16.17;7.77;;;;;;;;;;4433841;32;20208;-55
2021/10/30 10:52:16;;;;;;;10.10;7.97;;;;;;;;;;4433195;32;20581;-55
2021/10/30 10:55:02;;;;;;;9.67;7.40;;;;;;;;;;4432307;32;20219;-54
2021/10/30 10:57:28;;;;;;;27.17;8.97;;;;;;;;;;4431379;32;20236;-55
2021/10/30 11:00:13;;;;;;;14.10;8.50;;;;;;;;;;4432417;32;20633;-54
2021/10/30 11:02:41;;;;;;;23.90;13.73;;;;;;;;;;4431980;32;20264;-54
2021/10/30 11:05:14;;;;;;;14.63;10.03;;;;;;;;;;4430013;32;20440;-54
2021/10/30 11:07:57;;;;;;;11.23;8.37;;;;;;;;;;4431424;32;20641;-55
2021/10/30 11:10:31;;;;;;;10.63;9.07;;;;;;;;;;4430177;32;20675;-55
2021/10/30 11:12:59;;;;;;;15.40;8.43;;;;;;;;;;4431721;32;20712;-54
2021/10/30 11:15:27;;;;;;;10.07;6.93;;;;;;;;;;4431613;32;20344;-56
2021/10/30 11:18:11;;;;;;;13.23;6.87;;;;;;;;;;4431695;32;20414;-55
2021/10/30 11:21:05;;;;;;;10.47;6.97;;;;;;;;;;4431321;32;20326;-55
2021/10/30 11:23:40;;;;;;;8.70;6.60;;;;;;;;;;4429547;32;20225;-54
2021/10/30 11:26:09;;;;;;;10.67;6.47;;;;;;;;;;4428553;32;20664;-54
2021/10/30 11:28:38;;;;;;;26.77;15.97;;;;;;;;;;4431993;32;20259;-55
2021/10/30 11:31:16;;;;;;;9.53;7.60;;;;;;;;;;4431328;32;20314;-54
2021/10/30 11:33:45;;;;;;;10.90;7.57;;;;;;;;;;4430864;32;20233;-55
2021/10/30 11:36:14;;;;;;;13.40;6.97;;;;;;;;;;4432594;32;20262;-54
2021/10/30 11:38:45;;;;;;;12.57;8.97;;;;;;;;;;4432734;32;20525;-54
2021/10/30 11:41:19;;;;;;;16.12;9.63;;;;;;;;;;4432229;32;20274;-54
2021/10/30 11:43:47;;;;;;;14.43;9.23;;;;;;;;;;4431702;32;20212;-55
2021/10/30 11:46:18;;;;;;;8.13;6.37;;;;;;;;;;4430311;32;20756;-55
2021/10/30 11:48:48;;;;;;;16.30;7.87;;;;;;;;;;4430567;32;20209;-53
2021/10/30 11:51:15;;;;;;;14.00;9.23;;;;;;;;;;4430201;32;20267;-55
2021/10/30 11:53:42;;;;;;;10.43;6.13;;;;;;;;;;4430635;32;20788;-54
2021/10/30 11:56:11;;;;;;;9.93;6.93;;;;;;;;;;4430122;32;20278;-54
2021/10/30 11:58:45;;;;;;;11.10;8.00;;;;;;;;;;4430693;32;20641;-54
2021/10/30 12:01:28;;;;;;;11.67;7.93;;;;;;;;;;4430419;32;20240;-53
2021/10/30 12:04:10;;;;;;;10.53;7.70;;;;;;;;;;4431512;32;20590;-53
2021/10/30 12:06:38;;;;;;;12.93;7.43;;;;;;;;;;4432725;32;20578;-54
2021/10/30 12:09:16;;;;;;;17.37;12.13;;;;;;;;;;4432251;32;20672;-54
2021/10/30 12:11:42;;;;;;;10.07;8.50;;;;;;;;;;4432653;32;20787;-53
2021/10/30 12:14:08;;;;;;;10.97;8.03;;;;;;;;;;4430944;32;20466;-54
2021/10/30 12:16:34;;;;;;;11.33;8.20;;;;;;;;;;4432492;32;20300;-54
2021/10/30 12:19:04;;;;;;;9.33;7.43;;;;;;;;;;4432691;32;20607;-55
2021/10/30 12:21:36;;;;;;;17.90;11.27;;;;;;;;;;4432668;32;20328;-54
2021/10/30 12:24:05;;;;;;;12.60;9.30;;;;;;;;;;4430461;32;20301;-54
2021/10/30 12:26:51;;;;;;;14.13;9.73;;;;;;;;;;4431293;32;20228;-54
2021/10/30 12:29:18;;;;;;;14.50;9.33;;;;;;;;;;4432769;32;20288;-54
2021/10/30 12:32:04;;;;;;;21.40;11.10;;;;;;;;;;4432859;32;20240;-54
2021/10/30 12:34:32;;;;;;;20.97;12.13;;;;;;;;;;4432196;32;20664;-55
2021/10/30 12:37:01;;;;;;;34.57;25.23;;;;;;;;;;4432275;32;20252;-54
2021/10/30 12:39:27;;;;;;;17.07;12.00;;;;;;;;;;4431235;32;20339;-54
2021/10/30 12:41:59;;;;;;;14.10;8.57;;;;;;;;;;4432908;32;20362;-55
2021/10/30 12:44:48;;;;;;;13.10;9.00;;;;;;;;;;4432582;32;20632;-54
2021/10/30 12:47:15;;;;;;;12.97;8.40;;;;;;;;;;4432358;32;20208;-54
2021/10/30 12:49:43;;;;;;;13.37;7.77;;;;;;;;;;4432417;32;20265;-54
2021/10/30 12:52:14;;;;;;;12.00;7.70;;;;;;;;;;4435133;32;20302;-55
2021/10/30 12:54:56;;;;;;;14.13;11.10;;;;;;;;;;4434915;32;20248;-53
2021/10/30 12:57:28;;;;;;;39.23;28.27;;;;;;;;;;4434823;32;20343;-54
2021/10/30 13:00:15;;;;;;;15.53;10.47;;;;;;;;;;4435300;32;20189;-54
2021/10/30 13:02:41;;;;;;;17.87;12.47;;;;;;;;;;4435059;32;20693;-54
2021/10/30 13:05:19;;;;;;;19.23;10.60;;;;;;;;;;4434970;32;20640;-55
2021/10/30 13:07:47;;;;;;;19.97;11.37;;;;;;;;;;4435164;32;20307;-54
2021/10/30 13:10:16;;;;;;;14.63;9.50;;;;;;;;;;4435004;32;20227;-54
2021/10/30 13:12:43;;;;;;;16.73;8.93;;;;;;;;;;4434916;32;20233;-55
2021/10/30 13:15:10;;;;;;;17.60;9.90;;;;;;;;;;4434715;32;20213;-56
2021/10/30 13:17:35;;;;;;;15.47;10.20;;;;;;;;;;4435314;32;20775;-54
2021/10/30 13:20:01;;;;;;;12.13;8.60;;;;;;;;;;4433396;32;20349;-55
2021/10/30 13:22:27;;;;;;;14.73;9.07;;;;;;;;;;4435186;32;20335;-55
2021/10/30 13:24:53;;;;;;;20.87;10.53;;;;;;;;;;4432076;32;20272;-56
2021/10/30 13:27:18;;;;;;;17.50;9.63;;;;;;;;;;4435121;32;20601;-54
2021/10/30 13:29:44;;;;;;;22.63;10.07;;;;;;;;;;4435066;32;20310;-55
2021/10/30 13:32:10;;;;;;;55.80;27.17;;;;;;;;;;4434797;32;20679;-54
2021/10/30 13:34:36;;;;;;;48.30;23.40;;;;;;;;;;4433088;32;20311;-55
2021/10/30 13:37:02;;;;;;;91.40;51.60;;;;;;;;;;4434494;32;20300;-55
2021/10/30 13:39:28;;;;;;;68.87;42.23;;;;;;;;;;4434980;32;20268;-54
2021/10/30 13:41:54;;;;;;;25.30;16.20;;;;;;;;;;4434663;32;20599;-54
2021/10/30 13:44:20;;;;;;;30.03;15.80;;;;;;;;;;4432923;32;20196;-54
2021/10/30 13:46:46;;;;;;;24.37;13.20;;;;;;;;;;4434922;32;20566;-54
2021/10/30 13:49:12;;;;;;;16.73;10.00;;;;;;;;;;4435112;32;20308;-62
2021/10/30 13:51:37;;;;;;;13.13;8.90;;;;;;;;;;4434547;32;20282;-55
2021/10/30 13:54:03;;;;;;;18.47;12.27;;;;;;;;;;4434199;32;20302;-54
2021/10/30 13:56:29;;;;;;;15.27;11.03;;;;;;;;;;4434678;32;20695;-54
2021/10/30 13:58:56;;;;;;;14.93;10.33;;;;;;;;;;4434441;32;20290;-56
2021/10/30 14:01:23;;;;;;;45.40;22.23;;;;;;;;;;4433428;32;20213;-54
2021/10/30 14:03:52;;;;;;;22.17;14.13;;;;;;;;;;4433428;32;20333;-56
2021/10/30 14:06:18;;;;;;;18.83;13.50;;;;;;;;;;4433667;32;20252;-54
2021/10/30 14:08:45;;;;;;;23.23;11.13;;;;;;;;;;4433475;32;20557;-55
2021/10/30 14:11:11;;;;;;;16.17;11.20;;;;;;;;;;4433840;32;20371;-54
2021/10/30 14:13:37;;;;;;;18.23;9.60;;;;;;;;;;4434302;32;20731;-54
2021/10/30 14:16:09;;;;;;;23.80;13.47;;;;;;;;;;4433828;32;20236;-54
2021/10/30 14:18:36;;;;;;;19.10;13.10;;;;;;;;;;4434431;32;20205;-55
2021/10/30 14:21:05;;;;;;;38.03;22.37;;;;;;;;;;4434156;32;20233;-55
2021/10/30 14:23:33;;;;;;;21.03;13.90;;;;;;;;;;4431134;32;20247;-54